createdAt,value
2022-12-25T00:00:28.001Z,95532.00
2022-12-25T00:01:27.939Z,95532.00
2022-12-25T00:02:28.051Z,95530.00
2022-12-25T00:03:28.101Z,95532.00
2022-12-25T00:58:42.046Z,95568.00
2022-12-25T00:59:41.986Z,95568.00
2022-12-25T01:00:41.970Z,95568.00
2022-12-25T01:01:42.228Z,95568.00
2022-12-25T01:02:41.927Z,95570.00
2022-12-25T01:03:41.777Z,95570.00
2022-12-25T01:04:41.719Z,95570.00
2022-12-25T01:05:41.673Z,95568.00
2022-12-25T01:06:41.609Z,95570.00
2022-12-25T01:07:41.572Z,95573.00
2022-12-25T01:08:41.509Z,95573.00
2022-12-25T01:09:41.457Z,95572.00
2022-12-25T01:10:41.401Z,95573.00
2022-12-25T01:11:41.383Z,95575.00
2022-12-25T01:12:41.295Z,95581.00
2022-12-25T01:13:41.248Z,95581.00
2022-12-25T01:14:41.201Z,95581.00
2022-12-25T01:15:41.147Z,95581.00
2022-12-25T01:16:41.113Z,95583.00
2022-12-25T01:17:41.019Z,95579.00
2022-12-25T01:18:40.952Z,95579.00
2022-12-25T01:19:40.894Z,95575.00
2022-12-25T01:20:40.841Z,95573.00
2022-12-25T01:21:40.781Z,95572.00
2022-12-25T01:22:40.733Z,95572.00
2022-12-25T01:23:40.654Z,95570.00
2022-12-25T01:24:40.603Z,95570.00
2022-12-25T01:25:40.547Z,95568.00
2022-12-25T01:26:40.507Z,95564.00
2022-12-25T01:27:40.551Z,95564.00
2022-12-25T01:28:40.400Z,95566.00
2022-12-25T01:29:40.344Z,95568.00
2022-12-25T01:30:40.349Z,95570.00
2022-12-25T01:31:40.310Z,95572.00
2022-12-25T01:32:40.188Z,95570.00
2022-12-25T01:33:40.131Z,95568.00
2022-12-25T01:34:40.083Z,95568.00
2022-12-25T01:35:40.042Z,95568.00
2022-12-25T01:36:39.982Z,95566.00
2022-12-25T01:37:39.925Z,95566.00
2022-12-25T01:38:39.923Z,95562.00
2022-12-25T01:39:39.825Z,95564.00
2022-12-25T01:40:39.766Z,95562.00
2022-12-25T01:41:39.708Z,95562.00
2022-12-25T01:42:39.672Z,95564.00
2022-12-25T01:43:39.612Z,95564.00
2022-12-25T01:44:39.526Z,95556.00
2022-12-25T01:45:39.495Z,95554.00
2022-12-25T01:46:39.412Z,95552.00
2022-12-25T01:47:39.355Z,95552.00
2022-12-25T01:48:39.309Z,95550.00
2022-12-25T01:49:39.243Z,95548.00
2022-12-25T01:50:39.187Z,95550.00
2022-12-25T01:51:39.137Z,95552.00
2022-12-25T01:52:39.075Z,95554.00
2022-12-25T01:53:39.025Z,95554.00
2022-12-25T01:54:38.960Z,95552.00
2022-12-25T01:55:38.909Z,95552.00
2022-12-25T01:56:38.883Z,95560.00
2022-12-25T01:57:38.807Z,95556.00
2022-12-25T01:58:38.759Z,95556.00
2022-12-25T01:59:38.732Z,95554.00
2022-12-25T02:00:38.708Z,95556.00
2022-12-25T02:01:38.699Z,95556.00
2022-12-25T02:02:38.667Z,95554.00
2022-12-25T02:03:38.482Z,95554.00
2022-12-25T02:04:38.458Z,95554.00
2022-12-25T02:05:38.361Z,95554.00
2022-12-25T02:06:38.310Z,95558.00
2022-12-25T02:07:38.286Z,95556.00
2022-12-25T02:08:38.190Z,95550.00
2022-12-25T02:09:38.185Z,95546.00
2022-12-25T02:10:38.069Z,95548.00
2022-12-25T02:11:38.026Z,95544.00
2022-12-25T02:12:37.951Z,95542.00
2022-12-25T02:13:37.890Z,95542.00
2022-12-25T02:14:37.837Z,95540.00
2022-12-25T02:15:37.816Z,95538.00
2022-12-25T02:16:57.853Z,95538.00
2022-12-25T02:17:37.670Z,95534.00
2022-12-25T02:18:37.604Z,95534.00
2022-12-25T02:19:37.542Z,95530.00
2022-12-25T02:20:37.493Z,95530.00
2022-12-25T02:21:37.423Z,95534.00
2022-12-25T02:22:37.374Z,95538.00
2022-12-25T02:23:37.318Z,95538.00
2022-12-25T02:24:37.238Z,95536.00
2022-12-25T02:25:37.195Z,95536.00
2022-12-25T02:26:37.134Z,95536.00
2022-12-25T02:27:37.069Z,95536.00
2022-12-25T02:28:37.006Z,95538.00
2022-12-25T02:29:36.942Z,95536.00
2022-12-25T02:30:36.899Z,95534.00
2022-12-25T02:31:36.934Z,95534.00
2022-12-25T02:32:36.763Z,95534.00
2022-12-25T02:33:36.706Z,95536.00
2022-12-25T02:34:36.669Z,95536.00
2022-12-25T02:35:36.588Z,95536.00
2022-12-25T02:36:36.531Z,95534.00
2022-12-25T02:37:36.467Z,95532.00
2022-12-25T02:38:36.401Z,95530.00
2022-12-25T02:39:36.348Z,95534.00
2022-12-25T02:40:36.287Z,95536.00
2022-12-25T02:41:36.244Z,95538.00
2022-12-25T02:42:36.180Z,95540.00
2022-12-25T02:43:36.119Z,95540.00
2022-12-25T02:44:36.060Z,95540.00
2022-12-25T02:45:36.013Z,95540.00
2022-12-25T02:46:35.975Z,95540.00
2022-12-25T02:47:35.905Z,95538.00
2022-12-25T02:48:35.839Z,95536.00
2022-12-25T02:49:35.772Z,95536.00
2022-12-25T02:50:35.711Z,95534.00
2022-12-25T02:51:35.654Z,95534.00
2022-12-25T02:52:35.594Z,95530.00
2022-12-25T02:53:35.543Z,95532.00
2022-12-25T02:54:35.477Z,95530.00
2022-12-25T02:55:35.426Z,95534.00
2022-12-25T02:56:35.365Z,95530.00
2022-12-25T02:57:35.308Z,95528.00
2022-12-25T02:58:35.247Z,95528.00
2022-12-25T02:59:35.196Z,95526.00
2022-12-25T03:00:35.128Z,95528.00
2022-12-25T03:01:36.072Z,95536.00
2022-12-25T03:02:35.062Z,95542.00
2022-12-25T03:03:35.097Z,95540.00
2022-12-25T03:04:34.924Z,95536.00
2022-12-25T03:05:34.860Z,95532.00
2022-12-25T03:06:34.810Z,95532.00
2022-12-25T03:07:34.752Z,95532.00
2022-12-25T03:08:34.704Z,95538.00
2022-12-25T03:09:34.645Z,95540.00
2022-12-25T03:10:34.599Z,95540.00
2022-12-25T03:11:34.546Z,95536.00
2022-12-25T03:12:34.489Z,95538.00
2022-12-25T03:13:34.438Z,95534.00
2022-12-25T03:14:34.386Z,95536.00
2022-12-25T03:15:34.329Z,95538.00
2022-12-25T03:16:34.331Z,95538.00
2022-12-25T03:17:34.240Z,95540.00
2022-12-25T03:18:34.187Z,95540.00
2022-12-25T03:19:34.179Z,95540.00
2022-12-25T03:20:34.059Z,95538.00
2022-12-25T03:21:34.011Z,95536.00
2022-12-25T03:22:33.963Z,95532.00
2022-12-25T03:23:33.908Z,95530.00
2022-12-25T03:24:33.854Z,95526.00
2022-12-25T03:25:33.800Z,95526.00
2022-12-25T03:26:33.767Z,95528.00
2022-12-25T03:27:33.693Z,95530.00
2022-12-25T03:28:33.640Z,95532.00
2022-12-25T03:29:33.631Z,95532.00
2022-12-25T03:30:33.572Z,95530.00
2022-12-25T03:31:33.475Z,95530.00
2022-12-25T03:32:33.428Z,95532.00
2022-12-25T03:33:47.184Z,95530.00
2022-12-25T03:34:33.373Z,95528.00
2022-12-25T03:35:33.282Z,95530.00
2022-12-25T03:36:33.204Z,95528.00
2022-12-25T03:37:33.159Z,95526.00
2022-12-25T03:38:33.111Z,95526.00
2022-12-25T03:39:33.034Z,95526.00
2022-12-25T03:40:32.979Z,95525.00
2022-12-25T03:41:32.929Z,95526.00
2022-12-25T03:42:32.898Z,95525.00
2022-12-25T03:43:32.827Z,95525.00
2022-12-25T03:44:32.754Z,95521.00
2022-12-25T03:45:32.704Z,95519.00
2022-12-25T03:46:32.711Z,95523.00
2022-12-25T03:47:32.605Z,95519.00
2022-12-25T03:48:32.531Z,95517.00
2022-12-25T03:49:32.504Z,95517.00
2022-12-25T03:50:32.409Z,95515.00
2022-12-25T03:51:32.393Z,95519.00
2022-12-25T03:52:32.299Z,95525.00
2022-12-25T03:53:32.243Z,95523.00
2022-12-25T03:54:32.213Z,95525.00
2022-12-25T03:55:32.128Z,95525.00
2022-12-25T03:56:32.078Z,95523.00
2022-12-25T03:57:32.021Z,95523.00
2022-12-25T03:58:31.962Z,95517.00
2022-12-25T03:59:31.905Z,95513.00
2022-12-25T04:00:31.843Z,95515.00
2022-12-25T04:01:31.992Z,95517.00
2022-12-25T04:02:31.913Z,95515.00
2022-12-25T04:03:31.806Z,95515.00
2022-12-25T04:04:31.620Z,95515.00
2022-12-25T04:05:31.562Z,95517.00
2022-12-25T04:06:31.499Z,95515.00
2022-12-25T04:07:31.465Z,95515.00
2022-12-25T04:08:31.390Z,95515.00
2022-12-25T04:09:31.370Z,95517.00
2022-12-25T04:10:31.321Z,95519.00
2022-12-25T04:11:31.231Z,95523.00
2022-12-25T04:12:31.170Z,95523.00
2022-12-25T04:13:31.149Z,95525.00
2022-12-25T04:14:31.065Z,95526.00
2022-12-25T04:15:31.058Z,95526.00
2022-12-25T04:16:30.954Z,95523.00
2022-12-25T04:17:30.906Z,95525.00
2022-12-25T04:18:30.841Z,95526.00
2022-12-25T04:19:30.816Z,95530.00
2022-12-25T04:20:30.720Z,95530.00
2022-12-25T04:21:30.683Z,95528.00
2022-12-25T04:22:30.603Z,95528.00
2022-12-25T04:23:30.575Z,95528.00
2022-12-25T04:24:30.526Z,95526.00
2022-12-25T04:25:30.442Z,95528.00
2022-12-25T04:26:30.419Z,95532.00
2022-12-25T04:27:30.333Z,95528.00
2022-12-25T04:28:30.291Z,95526.00
2022-12-25T04:29:30.242Z,95528.00
2022-12-25T04:30:30.164Z,95525.00
2022-12-25T04:31:30.235Z,95521.00
2022-12-25T04:32:30.055Z,95521.00
2022-12-25T04:33:29.991Z,95519.00
2022-12-25T04:34:29.937Z,95521.00
2022-12-25T04:35:29.879Z,95519.00
2022-12-25T04:36:29.825Z,95515.00
2022-12-25T04:37:29.777Z,95513.00
2022-12-25T04:38:29.741Z,95513.00
2022-12-25T04:39:29.782Z,95515.00
2022-12-25T04:40:29.605Z,95517.00
2022-12-25T04:41:29.549Z,95517.00
2022-12-25T04:42:29.492Z,95517.00
2022-12-25T04:43:29.479Z,95517.00
2022-12-25T04:44:29.374Z,95521.00
2022-12-25T04:45:29.319Z,95525.00
2022-12-25T04:46:29.411Z,95526.00
2022-12-25T04:47:29.223Z,95526.00
2022-12-25T04:48:29.202Z,95525.00
2022-12-25T04:49:29.105Z,95523.00
2022-12-25T04:50:29.058Z,95521.00
2022-12-25T04:51:28.970Z,95521.00
2022-12-25T04:52:28.921Z,95523.00
2022-12-25T04:53:28.862Z,95523.00
2022-12-25T04:54:28.832Z,95519.00
2022-12-25T04:55:28.829Z,95519.00
2022-12-25T04:56:28.693Z,95517.00
2022-12-25T04:57:28.708Z,95517.00
2022-12-25T04:58:28.585Z,95517.00
2022-12-25T04:59:28.605Z,95519.00
2022-12-25T05:00:28.482Z,95519.00
2022-12-25T05:01:28.603Z,95517.00
2022-12-25T05:02:28.638Z,95519.00
2022-12-25T05:03:28.445Z,95521.00
2022-12-25T05:04:28.280Z,95519.00
2022-12-25T05:05:28.210Z,95517.00
2022-12-25T05:06:28.156Z,95515.00
2022-12-25T05:07:28.116Z,95517.00
2022-12-25T05:08:28.049Z,95517.00
2022-12-25T05:09:28.032Z,95513.00
2022-12-25T05:10:27.947Z,95515.00
2022-12-25T05:11:27.967Z,95517.00
2022-12-25T05:12:27.837Z,95519.00
2022-12-25T05:13:27.787Z,95517.00
2022-12-25T05:14:27.762Z,95517.00
2022-12-25T05:15:27.681Z,95517.00
2022-12-25T05:16:27.784Z,95515.00
2022-12-25T05:17:27.608Z,95517.00
2022-12-25T05:18:27.529Z,95519.00
2022-12-25T05:19:27.479Z,95519.00
2022-12-25T05:20:27.435Z,95521.00
2022-12-25T05:21:27.378Z,95523.00
2022-12-25T05:22:27.336Z,95528.00
2022-12-25T05:23:27.278Z,95528.00
2022-12-25T05:24:27.218Z,95528.00
2022-12-25T05:25:27.164Z,95530.00
2022-12-25T05:26:27.107Z,95532.00
2022-12-25T05:27:27.092Z,95532.00
2022-12-25T05:28:27.014Z,95530.00
2022-12-25T05:29:26.952Z,95530.00
2022-12-25T05:30:26.900Z,95530.00
2022-12-25T05:31:26.896Z,95530.00
2022-12-25T05:32:26.796Z,95530.00
2022-12-25T05:33:26.744Z,95526.00
2022-12-25T05:34:26.690Z,95526.00
2022-12-25T05:35:26.630Z,95528.00
2022-12-25T05:36:26.590Z,95525.00
2022-12-25T05:37:26.533Z,95526.00
2022-12-25T05:38:26.486Z,95526.00
2022-12-25T05:39:26.441Z,95526.00
2022-12-25T05:40:26.375Z,95523.00
2022-12-25T05:41:30.704Z,95526.00
2022-12-25T05:42:26.313Z,95523.00
2022-12-25T05:43:26.243Z,95525.00
2022-12-25T05:44:26.168Z,95526.00
2022-12-25T05:45:26.112Z,95528.00
2022-12-25T05:46:26.110Z,95528.00
2022-12-25T05:47:26.016Z,95532.00
2022-12-25T05:48:25.973Z,95530.00
2022-12-25T05:49:25.927Z,95532.00
2022-12-25T05:50:25.853Z,95534.00
2022-12-25T05:51:25.808Z,95538.00
2022-12-25T05:52:25.759Z,95538.00
2022-12-25T05:53:25.702Z,95538.00
2022-12-25T05:54:25.649Z,95538.00
2022-12-25T05:55:25.599Z,95538.00
2022-12-25T05:56:25.557Z,95538.00
2022-12-25T05:57:25.485Z,95538.00
2022-12-25T05:58:25.440Z,95538.00
2022-12-25T05:59:25.410Z,95536.00
2022-12-25T06:00:25.322Z,95534.00
2022-12-25T06:01:25.340Z,95536.00
2022-12-25T06:02:25.415Z,95536.00
2022-12-25T06:03:25.221Z,95534.00
2022-12-25T06:04:25.106Z,95538.00
2022-12-25T06:05:25.055Z,95538.00
2022-12-25T06:06:25.122Z,95540.00
2022-12-25T06:07:24.952Z,95546.00
2022-12-25T06:08:24.900Z,95546.00
2022-12-25T06:09:24.852Z,95548.00
2022-12-25T06:10:24.795Z,95548.00
2022-12-25T06:11:24.759Z,95548.00
2022-12-25T06:12:24.709Z,95550.00
2022-12-25T06:13:24.657Z,95550.00
2022-12-25T06:14:24.599Z,95552.00
2022-12-25T06:15:24.578Z,95554.00
2022-12-25T06:16:24.557Z,95554.00
2022-12-25T06:17:24.461Z,95554.00
2022-12-25T06:18:24.405Z,95554.00
2022-12-25T06:19:24.370Z,95552.00
2022-12-25T06:20:24.385Z,95552.00
2022-12-25T06:21:24.322Z,95556.00
2022-12-25T06:22:24.234Z,95554.00
2022-12-25T06:23:24.205Z,95554.00
2022-12-25T06:24:24.122Z,95554.00
2022-12-25T06:25:24.080Z,95554.00
2022-12-25T06:26:24.029Z,95552.00
2022-12-25T06:27:23.991Z,95552.00
2022-12-25T06:28:23.937Z,95550.00
2022-12-25T06:29:23.887Z,95548.00
2022-12-25T06:30:23.846Z,95544.00
2022-12-25T06:31:23.918Z,95546.00
2022-12-25T06:32:23.754Z,95542.00
2022-12-25T06:33:23.702Z,95544.00
2022-12-25T06:34:23.653Z,95548.00
2022-12-25T06:35:23.609Z,95546.00
2022-12-25T06:36:23.572Z,95544.00
2022-12-25T06:37:23.515Z,95544.00
2022-12-25T06:38:23.471Z,95546.00
2022-12-25T06:39:23.456Z,95546.00
2022-12-25T06:40:23.368Z,95548.00
2022-12-25T06:41:23.322Z,95552.00
2022-12-25T06:42:23.270Z,95552.00
2022-12-25T06:43:23.224Z,95552.00
2022-12-25T06:44:23.224Z,95548.00
2022-12-25T06:45:23.270Z,95546.00
2022-12-25T06:46:23.135Z,95548.00
2022-12-25T06:47:23.060Z,95548.00
2022-12-25T06:48:22.974Z,95550.00
2022-12-25T06:49:22.943Z,95552.00
2022-12-25T06:50:22.888Z,95548.00
2022-12-25T06:51:22.842Z,95550.00
2022-12-25T06:52:22.770Z,95554.00
2022-12-25T06:53:22.717Z,95552.00
2022-12-25T06:54:22.725Z,95556.00
2022-12-25T06:55:22.619Z,95556.00
2022-12-25T06:56:22.568Z,95556.00
2022-12-25T06:57:22.511Z,95556.00
2022-12-25T06:58:22.460Z,95560.00
2022-12-25T06:59:22.431Z,95556.00
2022-12-25T07:00:22.359Z,95558.00
2022-12-25T07:01:22.508Z,95560.00
2022-12-25T07:02:22.357Z,95558.00
2022-12-25T07:03:22.349Z,95560.00
2022-12-25T07:04:22.133Z,95558.00
2022-12-25T07:05:22.080Z,95558.00
2022-12-25T07:06:22.040Z,95562.00
2022-12-25T07:07:21.992Z,95562.00
2022-12-25T07:08:21.955Z,95562.00
2022-12-25T07:09:21.886Z,95560.00
2022-12-25T07:10:21.839Z,95562.00
2022-12-25T07:11:21.856Z,95566.00
2022-12-25T07:12:21.753Z,95566.00
2022-12-25T07:13:21.698Z,95566.00
2022-12-25T07:14:24.109Z,95568.00
2022-12-25T07:15:21.600Z,95568.00
2022-12-25T07:16:21.647Z,95570.00
2022-12-25T07:17:21.550Z,95570.00
2022-12-25T07:18:21.451Z,95570.00
2022-12-25T07:19:21.450Z,95573.00
2022-12-25T07:20:21.363Z,95575.00
2022-12-25T07:21:21.329Z,95575.00
2022-12-25T07:22:21.300Z,95577.00
2022-12-25T07:23:21.215Z,95577.00
2022-12-25T07:24:21.190Z,95579.00
2022-12-25T07:25:21.119Z,95581.00
2022-12-25T07:26:21.134Z,95581.00
2022-12-25T07:27:21.013Z,95579.00
2022-12-25T07:28:20.972Z,95579.00
2022-12-25T07:29:20.927Z,95579.00
2022-12-25T07:30:20.889Z,95581.00
2022-12-25T07:31:20.860Z,95583.00
2022-12-25T07:32:20.766Z,95585.00
2022-12-25T07:33:20.723Z,95589.00
2022-12-25T07:34:20.676Z,95585.00
2022-12-25T07:35:20.646Z,95587.00
2022-12-25T07:36:20.599Z,95587.00
2022-12-25T07:37:20.526Z,95589.00
2022-12-25T07:38:20.476Z,95587.00
2022-12-25T07:39:20.426Z,95587.00
2022-12-25T07:40:20.372Z,95587.00
2022-12-25T07:41:20.326Z,95587.00
2022-12-25T07:42:25.015Z,95585.00
2022-12-25T07:43:20.236Z,95587.00
2022-12-25T07:44:20.179Z,95585.00
2022-12-25T07:45:20.132Z,95585.00
2022-12-25T07:46:20.180Z,95585.00
2022-12-25T07:47:20.031Z,95587.00
2022-12-25T07:48:20.061Z,95585.00
2022-12-25T07:49:19.937Z,95585.00
2022-12-25T07:50:19.891Z,95585.00
2022-12-25T07:51:19.863Z,95587.00
2022-12-25T07:52:19.788Z,95587.00
2022-12-25T07:53:19.828Z,95587.00
2022-12-25T07:54:19.698Z,95587.00
2022-12-25T07:55:19.655Z,95589.00
2022-12-25T07:56:19.615Z,95593.00
2022-12-25T07:57:19.566Z,95591.00
2022-12-25T07:58:23.250Z,95591.00
2022-12-25T07:59:19.466Z,95589.00
2022-12-25T08:00:19.432Z,95593.00
2022-12-25T08:01:19.583Z,95593.00
2022-12-25T08:02:19.545Z,95593.00
2022-12-25T08:03:19.527Z,95591.00
2022-12-25T08:04:19.304Z,95591.00
2022-12-25T08:05:19.161Z,95589.00
2022-12-25T08:06:19.132Z,95587.00
2022-12-25T08:07:19.104Z,95593.00
2022-12-25T08:08:19.044Z,95591.00
2022-12-25T08:09:18.972Z,95591.00
2022-12-25T08:10:18.929Z,95589.00
2022-12-25T08:11:18.869Z,95589.00
2022-12-25T08:12:18.909Z,95591.00
2022-12-25T08:13:18.781Z,95589.00
2022-12-25T08:14:18.729Z,95589.00
2022-12-25T08:15:18.676Z,95589.00
2022-12-25T08:16:18.664Z,95591.00
2022-12-25T08:17:18.613Z,95585.00
2022-12-25T08:18:18.544Z,95581.00
2022-12-25T08:19:18.464Z,95581.00
2022-12-25T08:20:18.409Z,95581.00
2022-12-25T08:21:18.369Z,95585.00
2022-12-25T08:22:18.326Z,95589.00
2022-12-25T08:23:18.292Z,95589.00
2022-12-25T08:24:18.221Z,95587.00
2022-12-25T08:25:18.170Z,95583.00
2022-12-25T08:26:18.144Z,95585.00
2022-12-25T08:27:18.073Z,95589.00
2022-12-25T08:28:18.057Z,95591.00
2022-12-25T08:29:17.983Z,95589.00
2022-12-25T08:30:17.933Z,95585.00
2022-12-25T08:31:18.006Z,95585.00
2022-12-25T08:32:17.826Z,95587.00
2022-12-25T08:33:17.877Z,95589.00
2022-12-25T08:34:17.732Z,95585.00
2022-12-25T08:35:17.688Z,95583.00
2022-12-25T08:36:17.624Z,95585.00
2022-12-25T08:37:17.592Z,95585.00
2022-12-25T08:38:17.577Z,95585.00
2022-12-25T08:39:17.491Z,95585.00
2022-12-25T08:40:17.423Z,95589.00
2022-12-25T08:41:17.367Z,95589.00
2022-12-25T08:42:17.325Z,95589.00
2022-12-25T08:43:17.272Z,95589.00
2022-12-25T08:44:17.213Z,95587.00
2022-12-25T08:45:17.161Z,95591.00
2022-12-25T08:46:17.171Z,95595.00
2022-12-25T08:47:17.060Z,95593.00
2022-12-25T08:48:17.014Z,95591.00
2022-12-25T08:49:16.967Z,95591.00
2022-12-25T08:50:16.905Z,95593.00
2022-12-25T08:51:16.894Z,95593.00
2022-12-25T08:52:16.797Z,95589.00
2022-12-25T08:53:16.740Z,95587.00
2022-12-25T08:54:16.697Z,95589.00
2022-12-25T08:55:16.678Z,95587.00
2022-12-25T08:56:16.614Z,95581.00
2022-12-25T08:57:16.532Z,95581.00
2022-12-25T08:58:16.481Z,95585.00
2022-12-25T08:59:16.415Z,95587.00
2022-12-25T09:00:16.367Z,95589.00
2022-12-25T09:01:16.467Z,95587.00
2022-12-25T09:02:16.527Z,95589.00
2022-12-25T09:03:16.255Z,95593.00
2022-12-25T09:04:16.160Z,95593.00
2022-12-25T09:05:16.106Z,95595.00
2022-12-25T09:06:16.159Z,95595.00
2022-12-25T09:07:15.993Z,95591.00
2022-12-25T09:08:15.940Z,95591.00
2022-12-25T09:09:15.885Z,95595.00
2022-12-25T09:10:15.841Z,95593.00
2022-12-25T09:11:15.901Z,95593.00
2022-12-25T09:12:15.732Z,95589.00
2022-12-25T09:13:15.690Z,95591.00
2022-12-25T09:14:15.632Z,95593.00
2022-12-25T09:15:15.588Z,95591.00
2022-12-25T09:16:15.697Z,95585.00
2022-12-25T09:17:15.478Z,95585.00
2022-12-25T09:18:15.421Z,95583.00
2022-12-25T09:19:15.387Z,95587.00
2022-12-25T09:20:15.315Z,95585.00
2022-12-25T09:21:15.260Z,95585.00
2022-12-25T09:22:15.212Z,95589.00
2022-12-25T09:23:15.194Z,95587.00
2022-12-25T09:24:15.128Z,95589.00
2022-12-25T09:25:15.046Z,95589.00
2022-12-25T09:26:15.189Z,95589.00
2022-12-25T09:27:14.975Z,95593.00
2022-12-25T09:28:14.896Z,95591.00
2022-12-25T09:29:14.848Z,95591.00
2022-12-25T09:30:14.799Z,95589.00
2022-12-25T09:31:14.801Z,95589.00
2022-12-25T09:32:14.689Z,95589.00
2022-12-25T09:33:14.643Z,95587.00
2022-12-25T09:34:18.823Z,95587.00
2022-12-25T09:35:14.562Z,95583.00
2022-12-25T09:36:14.514Z,95579.00
2022-12-25T09:37:14.499Z,95577.00
2022-12-25T09:38:14.415Z,95579.00
2022-12-25T09:39:14.363Z,95575.00
2022-12-25T09:40:14.311Z,95570.00
2022-12-25T09:41:14.276Z,95566.00
2022-12-25T09:42:14.251Z,95564.00
2022-12-25T09:43:14.215Z,95558.00
2022-12-25T09:44:14.129Z,95554.00
2022-12-25T09:45:14.080Z,95554.00
2022-12-25T09:46:14.133Z,95552.00
2022-12-25T09:47:13.979Z,95546.00
2022-12-25T09:48:13.979Z,95550.00
2022-12-25T09:49:13.872Z,95548.00
2022-12-25T09:50:13.827Z,95546.00
2022-12-25T09:51:13.779Z,95544.00
2022-12-25T09:52:13.727Z,95542.00
2022-12-25T09:53:13.679Z,95544.00
2022-12-25T09:54:13.626Z,95546.00
2022-12-25T09:55:19.721Z,95542.00
2022-12-25T09:56:13.521Z,95544.00
2022-12-25T09:57:13.472Z,95542.00
2022-12-25T09:58:13.447Z,95542.00
2022-12-25T09:59:13.390Z,95542.00
2022-12-25T10:00:13.316Z,95540.00
2022-12-25T10:01:13.296Z,95540.00
2022-12-25T10:02:13.413Z,95538.00
2022-12-25T10:03:13.343Z,95538.00
2022-12-25T10:04:13.117Z,95538.00
2022-12-25T10:05:13.062Z,95538.00
2022-12-25T10:06:13.011Z,95536.00
2022-12-25T10:07:12.961Z,95534.00
2022-12-25T10:08:12.920Z,95532.00
2022-12-25T10:09:12.885Z,95530.00
2022-12-25T10:10:12.837Z,95530.00
2022-12-25T10:11:12.755Z,95526.00
2022-12-25T10:12:12.701Z,95525.00
2022-12-25T10:13:12.645Z,95521.00
2022-12-25T10:14:12.604Z,95517.00
2022-12-25T10:15:12.570Z,95517.00
2022-12-25T10:16:12.572Z,95519.00
2022-12-25T10:17:12.448Z,95519.00
2022-12-25T10:18:12.390Z,95517.00
2022-12-25T10:19:12.382Z,95519.00
2022-12-25T10:20:12.275Z,95515.00
2022-12-25T10:21:13.366Z,95513.00
2022-12-25T10:22:12.176Z,95515.00
2022-12-25T10:23:12.121Z,95515.00
2022-12-25T10:24:12.067Z,95513.00
2022-12-25T10:25:12.028Z,95509.00
2022-12-25T10:26:11.970Z,95505.00
2022-12-25T10:27:11.923Z,95505.00
2022-12-25T10:28:11.865Z,95503.00
2022-12-25T10:29:11.813Z,95503.00
2022-12-25T10:30:11.770Z,95503.00
2022-12-25T10:31:11.774Z,95503.00
2022-12-25T10:32:11.695Z,95501.00
2022-12-25T10:33:16.830Z,95503.00
2022-12-25T10:34:11.648Z,95503.00
2022-12-25T10:35:11.486Z,95505.00
2022-12-25T10:36:11.438Z,95503.00
2022-12-25T10:37:11.383Z,95501.00
2022-12-25T10:38:11.329Z,95501.00
2022-12-25T10:39:11.295Z,95503.00
2022-12-25T10:40:11.215Z,95501.00
2022-12-25T10:41:11.158Z,95501.00
2022-12-25T10:42:11.102Z,95499.00
2022-12-25T10:43:11.056Z,95501.00
2022-12-25T10:44:10.992Z,95501.00
2022-12-25T10:45:10.939Z,95497.00
2022-12-25T10:46:11.026Z,95493.00
2022-12-25T10:47:10.878Z,95493.00
2022-12-25T10:48:10.770Z,95497.00
2022-12-25T10:49:10.709Z,95489.00
2022-12-25T10:50:10.660Z,95481.00
2022-12-25T10:51:10.597Z,95483.00
2022-12-25T10:52:10.547Z,95485.00
2022-12-25T10:53:10.522Z,95487.00
2022-12-25T10:54:10.429Z,95485.00
2022-12-25T10:55:10.357Z,95481.00
2022-12-25T10:56:10.304Z,95477.00
2022-12-25T10:57:10.248Z,95477.00
2022-12-25T10:58:10.194Z,95475.00
2022-12-25T10:59:10.136Z,95475.00
2022-12-25T11:00:10.091Z,95475.00
2022-12-25T11:01:10.035Z,95473.00
2022-12-25T11:02:10.064Z,95471.00
2022-12-25T11:03:10.041Z,95470.00
2022-12-25T11:04:09.939Z,95468.00
2022-12-25T11:05:09.789Z,95468.00
2022-12-25T11:06:09.787Z,95462.00
2022-12-25T11:07:09.723Z,95462.00
2022-12-25T11:08:09.638Z,95462.00
2022-12-25T11:09:09.587Z,95462.00
2022-12-25T11:10:09.530Z,95462.00
2022-12-25T11:11:09.474Z,95458.00
2022-12-25T11:12:09.417Z,95456.00
2022-12-25T11:13:09.380Z,95450.00
2022-12-25T11:14:09.341Z,95452.00
2022-12-25T11:15:09.253Z,95450.00
2022-12-25T11:16:09.387Z,95442.00
2022-12-25T11:17:09.144Z,95442.00
2022-12-25T11:18:09.081Z,95440.00
2022-12-25T11:19:09.052Z,95442.00
2022-12-25T11:20:08.976Z,95442.00
2022-12-25T11:21:08.919Z,95438.00
2022-12-25T11:22:08.867Z,95434.00
2022-12-25T11:23:08.843Z,95434.00
2022-12-25T11:24:08.754Z,95430.00
2022-12-25T11:25:08.694Z,95428.00
2022-12-25T11:26:08.653Z,95428.00
2022-12-25T11:27:08.584Z,95426.00
2022-12-25T11:28:08.560Z,95428.00
2022-12-25T11:29:08.475Z,95426.00
2022-12-25T11:30:14.306Z,95426.00
2022-12-25T11:31:08.420Z,95424.00
2022-12-25T11:32:08.311Z,95424.00
2022-12-25T11:33:08.288Z,95421.00
2022-12-25T11:34:08.220Z,95421.00
2022-12-25T11:35:08.175Z,95417.00
2022-12-25T11:36:08.109Z,95417.00
2022-12-25T11:37:08.045Z,95415.00
2022-12-25T11:38:08.002Z,95413.00
2022-12-25T11:39:07.928Z,95415.00
2022-12-25T11:40:07.921Z,95413.00
2022-12-25T11:41:07.852Z,95409.00
2022-12-25T11:42:07.772Z,95401.00
2022-12-25T11:43:08.438Z,95399.00
2022-12-25T11:44:07.654Z,95395.00
2022-12-25T11:45:07.643Z,95393.00
2022-12-25T11:46:07.632Z,95393.00
2022-12-25T11:47:07.485Z,95391.00
2022-12-25T11:48:07.430Z,95387.00
2022-12-25T11:49:07.379Z,95385.00
2022-12-25T11:50:07.324Z,95383.00
2022-12-25T11:51:07.311Z,95383.00
2022-12-25T11:52:07.220Z,95381.00
2022-12-25T11:53:07.183Z,95383.00
2022-12-25T11:54:07.112Z,95379.00
2022-12-25T11:55:07.054Z,95374.00
2022-12-25T11:56:07.019Z,95372.00
2022-12-25T11:57:06.936Z,95374.00
2022-12-25T11:58:06.885Z,95374.00
2022-12-25T11:59:06.824Z,95372.00
2022-12-25T12:00:06.943Z,95372.00
2022-12-25T12:01:06.711Z,95374.00
2022-12-25T12:02:06.817Z,95370.00
2022-12-25T12:03:06.757Z,95368.00
2022-12-25T12:04:06.570Z,95368.00
2022-12-25T12:05:06.491Z,95368.00
2022-12-25T12:06:06.455Z,95366.00
2022-12-25T12:07:06.410Z,95362.00
2022-12-25T12:08:06.329Z,95360.00
2022-12-25T12:09:06.284Z,95358.00
2022-12-25T12:10:06.225Z,95358.00
2022-12-25T12:11:06.191Z,95354.00
2022-12-25T12:12:06.118Z,95356.00
2022-12-25T12:13:06.070Z,95354.00
2022-12-25T12:14:06.008Z,95352.00
2022-12-25T12:15:06.003Z,95350.00
2022-12-25T12:16:06.002Z,95352.00
2022-12-25T12:17:05.862Z,95352.00
2022-12-25T12:18:06.575Z,95346.00
2022-12-25T12:19:05.735Z,95346.00
2022-12-25T12:20:05.685Z,95346.00
2022-12-25T12:21:05.641Z,95344.00
2022-12-25T12:22:05.576Z,95344.00
2022-12-25T12:23:05.539Z,95344.00
2022-12-25T12:24:05.460Z,95344.00
2022-12-25T12:25:05.395Z,95340.00
2022-12-25T12:26:05.389Z,95342.00
2022-12-25T12:27:05.292Z,95342.00
2022-12-25T12:28:06.014Z,95340.00
2022-12-25T12:29:05.190Z,95338.00
2022-12-25T12:30:05.109Z,95336.00
2022-12-25T12:31:05.057Z,95334.00
2022-12-25T12:32:05.095Z,95334.00
2022-12-25T12:33:04.932Z,95334.00
2022-12-25T12:34:04.883Z,95334.00
2022-12-25T12:35:04.835Z,95334.00
2022-12-25T12:36:04.791Z,95334.00
2022-12-25T12:37:04.749Z,95332.00
2022-12-25T12:38:04.670Z,95334.00